MMCL/CUL METAR and TAF weather

Enter ICAO airport designator
Station Type Date Time Source
MMCL METAR 2021/08/05 03:40 UTC NOAA

MMCL 050340Z E18008G18KT 5SM TSRA SCT010 OVC015CB 25/24 A2992 RMK 60785 8/9// TSB25


Station Type Date Time Source
MMCL Decoded METAR 2021/08/05 03:40 UTC NOAA

Culiacan, Sin., Mexico (MMCL) 24-49N 107-24W
Aug 04, 2021 - 11:40 PM EDT / 2021.08.05 0340 UTC
Visibility: 5 mile(s):0
Sky conditions: overcast
Weather: rain with thunder; Cumulonimbus clouds observed
Temperature: 77 F (25 C)
Dew Point: 75 F (24 C)
Relative Humidity: 94%
Pressure (altimeter): 29.92 in. Hg (1013 hPa)
ob: MMCL 050340Z E18008G18KT 5SM TSRA SCT010 OVC015CB 25/24 A2992 RMK 60785 8/9// TSB25
cycle: 3

Station Type Date Time Source
MMCL TAF 2021/08/04 18:45 UTC NOAA

TAF TAF MMCL 041641Z 0418/0518 24010KT P6SM SCT020 BKN080 BKN200
BECMG 0421/0422 P6SM VC RA BKN020CB
TEMPO 0423/0503 4SM TSRA
FM050300 07004KT 6SM -RA BKN015 BKN080 OVC200
FM050600 10004KT P6SM SCT015 BKN080 BKN200
FM051600 20008KT P6SM SCT030 BKN100

Example: see airport list